createdAt,value
2023-01-05T00:03:07.666Z,16.75
2023-01-05T00:05:34.688Z,21.88
2023-01-05T00:08:01.487Z,17.88
2023-01-05T00:10:28.477Z,21.75
2023-01-05T00:12:55.291Z,16.30
2023-01-05T00:15:22.091Z,17.52
2023-01-05T00:17:49.041Z,19.13
2023-01-05T00:20:18.667Z,20.80
2023-01-05T00:22:54.793Z,20.05
2023-01-05T00:25:30.029Z,16.83
2023-01-05T00:27:57.128Z,18.50
2023-01-05T00:30:36.032Z,18.65
2023-01-05T00:35:49.491Z,18.20
2023-01-05T00:38:16.270Z,18.48
2023-01-05T00:40:43.036Z,18.87
2023-01-05T00:43:09.777Z,20.10
2023-01-05T00:45:36.571Z,21.73
2023-01-05T00:48:03.520Z,21.05
2023-01-05T00:50:30.361Z,17.80
2023-01-05T00:52:57.097Z,12.32
2023-01-05T00:55:23.887Z,19.85
2023-01-05T00:57:50.636Z,19.23
2023-01-05T01:00:19.724Z,19.17
2023-01-05T01:02:47.055Z,15.93
2023-01-05T01:05:14.308Z,20.60
2023-01-05T01:07:41.173Z,21.10
2023-01-05T01:10:09.265Z,15.57
2023-01-05T01:12:36.047Z,14.43
2023-01-05T01:15:03.191Z,13.38
2023-01-05T01:17:32.047Z,13.70
2023-01-05T01:19:58.811Z,15.50
2023-01-05T01:22:25.785Z,15.10
2023-01-05T01:24:52.714Z,12.35
2023-01-05T01:27:19.485Z,16.30
2023-01-05T01:29:46.239Z,13.53
2023-01-05T01:32:13.040Z,14.85
2023-01-05T01:34:39.864Z,18.45
2023-01-05T01:37:06.708Z,18.20
2023-01-05T01:39:33.597Z,16.25
2023-01-05T01:42:00.369Z,15.55
2023-01-05T01:47:38.372Z,17.95
2023-01-05T01:50:20.290Z,14.00
2023-01-05T01:52:49.875Z,18.60
2023-01-05T01:55:18.419Z,16.40
2023-01-05T01:57:47.226Z,17.42
2023-01-05T02:00:14.485Z,12.63
2023-01-05T02:02:41.732Z,18.63
2023-01-05T02:05:11.006Z,16.13
2023-01-05T02:07:43.535Z,16.50
2023-01-05T02:10:10.376Z,16.40
2023-01-05T02:12:49.101Z,17.83
2023-01-05T02:15:24.278Z,18.25
2023-01-05T02:17:56.640Z,15.60
2023-01-05T02:20:51.117Z,13.30
2023-01-05T02:24:03.275Z,17.48
2023-01-05T02:26:32.836Z,13.60
2023-01-05T02:29:40.517Z,17.40
2023-01-05T02:32:45.973Z,15.55
2023-01-05T02:35:33.727Z,19.00
2023-01-05T02:38:11.591Z,13.95
2023-01-05T02:40:49.061Z,13.13
2023-01-05T02:43:17.894Z,14.98
2023-01-05T02:48:32.907Z,11.90
2023-01-05T02:51:05.678Z,15.50
2023-01-05T02:53:37.734Z,18.40
2023-01-05T02:56:10.106Z,20.77
2023-01-05T02:58:52.954Z,18.38
2023-01-05T03:04:27.412Z,19.92
2023-01-05T03:07:04.958Z,20.17
2023-01-05T03:09:38.183Z,17.73
2023-01-05T03:12:37.490Z,16.42
2023-01-05T03:15:20.879Z,15.43
2023-01-05T03:17:55.139Z,14.40
2023-01-05T03:20:26.393Z,15.15
2023-01-05T03:22:55.124Z,14.23
2023-01-05T03:25:24.561Z,22.00
2023-01-05T03:33:58.050Z,14.70
2023-01-05T03:36:29.407Z,15.02
2023-01-05T03:38:59.048Z,16.10
2023-01-05T03:41:27.200Z,16.80
2023-01-05T03:43:54.087Z,15.70
2023-01-05T03:46:22.421Z,14.52
2023-01-05T03:48:50.050Z,16.92
2023-01-05T03:51:17.153Z,14.25
2023-01-05T03:53:44.185Z,15.10
2023-01-05T03:56:11.284Z,15.98
2023-01-05T03:58:38.547Z,14.70
2023-01-05T04:01:05.621Z,14.77
2023-01-05T04:03:32.791Z,12.20
2023-01-05T04:06:00.195Z,16.45
2023-01-05T04:08:27.062Z,12.70
2023-01-05T04:10:54.424Z,13.90
2023-01-05T04:13:21.271Z,16.50
2023-01-05T04:15:48.262Z,11.65
2023-01-05T04:18:15.238Z,13.63
2023-01-05T04:20:42.224Z,13.50
2023-01-05T04:23:09.007Z,13.38
2023-01-05T04:25:35.774Z,13.43
2023-01-05T04:28:02.530Z,12.05
2023-01-05T04:30:29.302Z,11.05
2023-01-05T04:32:56.076Z,14.05
2023-01-05T04:35:22.812Z,11.15
2023-01-05T04:37:49.563Z,12.32
2023-01-05T04:40:16.478Z,12.95
2023-01-05T04:45:30.052Z,12.55
2023-01-05T04:50:43.963Z,11.93
2023-01-05T04:55:58.118Z,13.38
2023-01-05T05:01:11.602Z,14.10
2023-01-05T05:03:38.439Z,10.52
2023-01-05T05:06:05.607Z,10.30
2023-01-05T05:08:32.471Z,13.18
2023-01-05T05:10:59.231Z,10.83
2023-01-05T05:13:26.083Z,14.00
2023-01-05T05:15:52.911Z,15.32
2023-01-05T05:18:19.670Z,14.10
2023-01-05T05:20:50.416Z,13.45
2023-01-05T05:23:18.801Z,9.45
2023-01-05T05:25:45.874Z,13.10
2023-01-05T05:28:12.644Z,11.77
2023-01-05T05:30:39.460Z,11.23
2023-01-05T05:33:06.460Z,11.63
2023-01-05T05:35:33.211Z,11.70
2023-01-05T05:37:59.998Z,13.50
2023-01-05T05:40:27.169Z,13.30
2023-01-05T05:42:54.378Z,13.02
2023-01-05T05:45:21.226Z,10.52
2023-01-05T05:47:47.995Z,10.18
2023-01-05T05:53:01.393Z,11.90
2023-01-05T05:58:14.845Z,11.20
2023-01-05T06:03:28.415Z,13.00
2023-01-05T06:05:55.256Z,13.48
2023-01-05T06:08:22.049Z,12.03
2023-01-05T06:10:49.558Z,12.10
2023-01-05T06:13:17.374Z,11.93
2023-01-05T06:15:44.158Z,13.18
2023-01-05T06:18:10.928Z,16.58
2023-01-05T06:20:37.699Z,11.65
2023-01-05T06:23:04.700Z,10.13
2023-01-05T06:25:31.822Z,10.73
2023-01-05T06:27:58.824Z,11.57
2023-01-05T06:30:26.265Z,11.33
2023-01-05T06:32:53.412Z,9.23
2023-01-05T06:35:20.315Z,12.55
2023-01-05T06:40:33.754Z,12.00
2023-01-05T06:45:47.409Z,12.35
2023-01-05T06:51:01.024Z,6.77
2023-01-05T06:53:27.917Z,13.80
2023-01-05T06:55:54.694Z,11.60
2023-01-05T06:58:21.453Z,9.43
2023-01-05T07:00:48.239Z,10.50
2023-01-05T07:03:15.102Z,13.13
2023-01-05T07:05:42.238Z,13.43
2023-01-05T07:08:09.027Z,8.70
2023-01-05T07:13:22.615Z,12.40
2023-01-05T07:18:36.132Z,9.85
2023-01-05T07:21:02.922Z,10.48
2023-01-05T07:23:29.691Z,9.30
2023-01-05T07:25:59.664Z,9.17
2023-01-05T07:28:26.455Z,11.65
2023-01-05T07:30:53.376Z,8.30
2023-01-05T07:33:20.225Z,13.70
2023-01-05T07:34:57.799Z,0
2023-01-05T07:35:47.186Z,12.90
2023-01-05T07:41:01.555Z,11.97
2023-01-05T07:46:15.465Z,11.30
2023-01-05T07:51:29.449Z,12.37
2023-01-05T07:53:56.503Z,12.93
2023-01-05T07:56:23.286Z,13.93
2023-01-05T07:58:50.075Z,13.05
2023-01-05T08:01:17.184Z,10.00
2023-01-05T08:02:36.496Z,0
2023-01-05T08:06:30.916Z,14.98
2023-01-05T08:11:44.416Z,15.05
2023-01-05T08:14:11.165Z,15.75
2023-01-05T08:16:37.953Z,13.65
2023-01-05T08:19:10.702Z,11.80
2023-01-05T08:24:24.712Z,13.30
2023-01-05T08:29:18.239Z,16.23
2023-01-05T08:31:44.977Z,12.70
2023-01-05T08:34:11.992Z,13.13
2023-01-05T08:36:38.996Z,14.23
2023-01-05T08:39:06.642Z,14.40
2023-01-05T08:44:25.813Z,11.55
2023-01-05T08:46:52.594Z,11.85
2023-01-05T08:49:19.406Z,9.87
2023-01-05T08:51:46.171Z,11.95
2023-01-05T08:54:12.961Z,8.80
2023-01-05T08:56:39.811Z,12.05
2023-01-05T08:59:07.332Z,10.40
2023-01-05T09:01:34.235Z,12.52
2023-01-05T09:04:01.103Z,9.30
2023-01-05T09:06:27.912Z,7.60
2023-01-05T09:08:54.763Z,10.15
2023-01-05T09:11:23.828Z,6.85
2023-01-05T09:13:53.028Z,7.18
2023-01-05T09:16:56.876Z,7.80
2023-01-05T09:17:11.714Z,0
2023-01-05T09:19:10.060Z,8.77
2023-01-05T09:21:36.846Z,7.88
2023-01-05T09:24:03.696Z,11.35
2023-01-05T09:26:30.501Z,10.00
2023-01-05T09:31:44.363Z,5.63
2023-01-05T09:36:58.075Z,7.28
2023-01-05T09:42:16.696Z,4.70
2023-01-05T09:44:56.981Z,5.20
2023-01-05T09:47:41.248Z,3.70
2023-01-05T09:50:18.329Z,4.07
2023-01-05T09:52:45.231Z,4.20
2023-01-05T09:55:21.649Z,4.10
2023-01-05T09:57:12.874Z,0
2023-01-05T09:57:51.175Z,4.13
2023-01-05T10:00:18.332Z,4.70
2023-01-05T10:03:01.172Z,5.00
2023-01-05T10:04:07.908Z,0
2023-01-05T10:05:29.525Z,4.22
2023-01-05T10:08:13.151Z,4.20
2023-01-05T10:10:56.358Z,3.78
2023-01-05T10:13:31.337Z,4.20
2023-01-05T10:15:58.191Z,5.03
2023-01-05T10:17:46.321Z,0
2023-01-05T10:18:27.846Z,4.80
2023-01-05T10:18:50.650Z,0
2023-01-05T10:23:49.721Z,4.80
2023-01-05T10:29:53.215Z,4.50
2023-01-05T10:32:49.041Z,4.35
2023-01-05T10:33:25.722Z,0
2023-01-05T10:36:03.257Z,4.75
2023-01-05T10:37:13.879Z,0
2023-01-05T10:38:39.753Z,4.03
2023-01-05T10:41:36.251Z,4.38
2023-01-05T10:46:54.012Z,0
2023-01-05T10:47:30.857Z,6.00
2023-01-05T10:49:59.292Z,3.63
2023-01-05T10:52:26.696Z,4.90
2023-01-05T10:55:00.334Z,5.40
2023-01-05T10:57:34.660Z,5.78
2023-01-05T11:00:14.453Z,6.10
2023-01-05T11:04:39.095Z,0
2023-01-05T11:08:36.306Z,4.50
2023-01-05T11:13:57.138Z,6.00
2023-01-05T11:16:28.209Z,6.32
2023-01-05T11:19:02.787Z,4.90
2023-01-05T11:24:24.960Z,5.05
2023-01-05T11:27:02.153Z,6.45
2023-01-05T11:29:30.130Z,5.43
2023-01-05T11:32:10.882Z,6.60
2023-01-05T11:34:47.980Z,4.97
2023-01-05T11:37:27.648Z,7.95
2023-01-05T11:42:42.257Z,6.63
2023-01-05T11:45:22.718Z,4.45
2023-01-05T11:48:01.267Z,7.05
2023-01-05T11:50:49.506Z,6.20
2023-01-05T11:53:34.364Z,5.33
2023-01-05T11:56:19.022Z,6.28
2023-01-05T11:58:02.574Z,0
2023-01-05T11:58:48.206Z,5.85
2023-01-05T12:01:52.249Z,6.55
2023-01-05T12:04:25.101Z,5.55
2023-01-05T12:06:59.120Z,6.00
2023-01-05T12:09:37.882Z,5.63
2023-01-05T12:12:07.576Z,5.23
2023-01-05T12:14:59.317Z,5.07
2023-01-05T12:17:56.518Z,7.35
2023-01-05T12:20:32.201Z,5.78
2023-01-05T12:23:40.824Z,7.65
2023-01-05T12:26:22.661Z,6.15
2023-01-05T12:38:24.442Z,5.53
2023-01-05T12:41:15.159Z,8.98
2023-01-05T12:44:03.695Z,4.90
2023-01-05T12:47:20.719Z,6.03
2023-01-05T12:49:55.595Z,7.20
2023-01-05T12:52:34.073Z,6.45
2023-01-05T12:55:15.010Z,6.43
2023-01-05T12:57:45.019Z,5.90
2023-01-05T13:00:15.850Z,5.13
2023-01-05T13:02:49.649Z,5.97
2023-01-05T13:05:46.040Z,5.70
2023-01-05T13:08:35.603Z,4.65
2023-01-05T13:11:26.629Z,7.15
2023-01-05T13:14:17.697Z,6.47
2023-01-05T13:15:42.128Z,0
2023-01-05T13:17:06.191Z,6.90
2023-01-05T13:19:50.239Z,5.43
2023-01-05T13:22:31.214Z,7.65
2023-01-05T13:25:09.005Z,6.05
2023-01-05T13:27:35.776Z,8.52
2023-01-05T13:30:04.168Z,8.52
2023-01-05T13:32:53.019Z,8.55
2023-01-05T13:35:22.832Z,6.43
2023-01-05T13:38:13.916Z,7.80
2023-01-05T13:41:19.100Z,6.85
2023-01-05T13:43:57.974Z,6.10
2023-01-05T13:46:34.954Z,6.50
2023-01-05T13:49:06.421Z,0
2023-01-05T13:52:02.352Z,7.07
2023-01-05T13:55:02.028Z,7.55
2023-01-05T14:00:13.267Z,0
2023-01-05T14:00:33.272Z,6.63
2023-01-05T14:03:06.621Z,6.28
2023-01-05T14:05:39.116Z,7.45
2023-01-05T14:08:14.517Z,9.27
2023-01-05T14:10:41.281Z,7.13
2023-01-05T14:16:48.603Z,7.57
2023-01-05T14:22:19.538Z,6.83
2023-01-05T14:24:46.664Z,5.88
2023-01-05T14:27:19.369Z,8.77
2023-01-05T14:29:46.100Z,9.25
2023-01-05T14:32:18.821Z,6.53
2023-01-05T14:34:50.587Z,7.60
2023-01-05T14:37:29.504Z,9.23
2023-01-05T14:40:04.132Z,5.80
2023-01-05T14:45:30.051Z,6.43
2023-01-05T14:48:06.958Z,5.85
2023-01-05T14:50:40.425Z,6.38
2023-01-05T14:55:41.660Z,0
2023-01-05T14:55:56.809Z,5.75
2023-01-05T14:58:35.826Z,7.20
2023-01-05T15:01:17.801Z,6.85
2023-01-05T15:03:57.150Z,7.55
2023-01-05T15:07:00.851Z,7.05
2023-01-05T15:19:17.720Z,6.38
2023-01-05T15:22:24.391Z,10.48
2023-01-05T15:22:41.234Z,0
2023-01-05T15:25:00.116Z,9.13
2023-01-05T15:26:10.367Z,0
2023-01-05T15:27:35.864Z,5.65
2023-01-05T15:30:22.258Z,5.22
2023-01-05T15:33:00.166Z,4.90
2023-01-05T15:38:43.952Z,6.00
2023-01-05T15:41:13.784Z,8.93
2023-01-05T15:43:42.341Z,9.18
2023-01-05T15:46:10.751Z,5.40
2023-01-05T15:48:43.256Z,6.30
2023-01-05T15:51:12.492Z,6.82
2023-01-05T15:53:40.968Z,7.97
2023-01-05T15:56:26.534Z,8.02
2023-01-05T15:58:53.326Z,8.05
2023-01-05T16:01:20.175Z,7.88
2023-01-05T16:03:47.945Z,7.63
2023-01-05T16:06:19.641Z,8.82
2023-01-05T16:08:50.127Z,8.30
2023-01-05T16:11:36.095Z,6.88
2023-01-05T16:14:11.772Z,7.43
2023-01-05T16:16:52.947Z,6.57
2023-01-05T16:19:30.027Z,6.65
2023-01-05T16:25:23.075Z,5.90
2023-01-05T16:27:52.513Z,7.05
2023-01-05T16:30:28.330Z,7.72
2023-01-05T16:32:57.608Z,5.38
2023-01-05T16:35:39.132Z,4.93
2023-01-05T16:41:23.024Z,11.48
2023-01-05T16:44:01.123Z,6.32
2023-01-05T16:49:43.702Z,5.80
2023-01-05T16:50:01.087Z,0
2023-01-05T16:52:23.867Z,6.18
2023-01-05T16:55:23.759Z,14.10
2023-01-05T16:57:54.268Z,6.20
2023-01-05T17:00:33.268Z,5.30
2023-01-05T17:03:23.693Z,4.88
2023-01-05T17:05:54.546Z,5.28
2023-01-05T17:08:26.430Z,6.07
2023-01-05T17:10:56.940Z,6.28
2023-01-05T17:13:27.621Z,6.70
2023-01-05T17:15:54.614Z,5.82
2023-01-05T17:18:27.859Z,5.60
2023-01-05T17:23:55.751Z,6.55
2023-01-05T17:26:29.677Z,6.00
2023-01-05T17:28:59.767Z,7.35
2023-01-05T17:31:26.732Z,5.50
2023-01-05T17:33:53.599Z,7.25
2023-01-05T17:36:24.213Z,5.50
2023-01-05T17:38:50.958Z,5.50
2023-01-05T17:41:17.713Z,5.47
2023-01-05T17:43:45.386Z,6.50
2023-01-05T17:49:21.915Z,6.90
2023-01-05T17:51:49.314Z,4.38
2023-01-05T17:54:16.177Z,5.55
2023-01-05T17:56:43.113Z,9.13
2023-01-05T18:01:56.877Z,9.45
2023-01-05T18:07:10.791Z,4.68
2023-01-05T18:09:37.753Z,7.35
2023-01-05T18:12:05.368Z,6.07
2023-01-05T18:14:32.145Z,6.15
2023-01-05T18:16:58.946Z,5.73
2023-01-05T18:19:25.694Z,5.60
2023-01-05T18:21:52.497Z,5.18
2023-01-05T18:24:19.301Z,4.83
2023-01-05T18:29:34.522Z,7.07
2023-01-05T18:34:48.288Z,5.15
2023-01-05T18:37:22.045Z,5.80
2023-01-05T18:39:49.152Z,8.27
2023-01-05T18:42:16.074Z,36.90
2023-01-05T18:44:42.907Z,13.80
2023-01-05T18:47:09.716Z,9.48
2023-01-05T18:49:36.525Z,7.07
2023-01-05T18:52:03.518Z,5.38
2023-01-05T18:54:30.387Z,5.50
2023-01-05T18:56:57.503Z,8.38
2023-01-05T18:59:24.784Z,5.00
2023-01-05T19:01:51.628Z,4.80
2023-01-05T19:04:18.898Z,6.65
2023-01-05T19:06:45.731Z,5.95
2023-01-05T19:09:16.075Z,5.95
2023-01-05T19:11:47.053Z,6.35
2023-01-05T19:14:15.235Z,5.25
2023-01-05T19:16:42.399Z,6.10
2023-01-05T19:19:11.563Z,5.60
2023-01-05T19:24:27.751Z,7.57
2023-01-05T19:26:54.758Z,4.20
2023-01-05T19:29:21.692Z,6.88
2023-01-05T19:31:48.526Z,7.17
2023-01-05T19:34:15.751Z,4.20
2023-01-05T19:36:43.230Z,5.90
2023-01-05T19:39:16.276Z,6.00
2023-01-05T19:41:46.572Z,5.80
2023-01-05T19:44:16.304Z,6.05
2023-01-05T19:46:44.004Z,5.53
2023-01-05T19:52:04.241Z,5.45
2023-01-05T19:57:17.736Z,6.80
2023-01-05T19:59:44.487Z,5.40
2023-01-05T20:02:11.538Z,4.90
2023-01-05T20:04:38.327Z,6.90
2023-01-05T20:07:05.324Z,8.00
2023-01-05T20:09:32.185Z,8.93
2023-01-05T20:12:09.256Z,6.22
2023-01-05T20:14:40.133Z,6.28
2023-01-05T20:17:08.717Z,6.03
2023-01-05T20:19:36.987Z,6.22
2023-01-05T20:22:05.843Z,7.35
2023-01-05T20:24:34.122Z,5.65
2023-01-05T20:27:04.723Z,6.50
2023-01-05T20:29:31.825Z,6.40
2023-01-05T20:32:02.916Z,6.63
2023-01-05T20:37:18.948Z,5.97
2023-01-05T20:42:32.474Z,6.43
2023-01-05T20:47:52.586Z,9.30
2023-01-05T20:50:19.351Z,5.75
2023-01-05T20:52:46.107Z,6.85
2023-01-05T20:55:12.892Z,5.63
2023-01-05T20:57:39.656Z,8.25
2023-01-05T21:00:06.934Z,6.93
2023-01-05T21:01:14.071Z,0
2023-01-05T21:02:27.329Z,0
2023-01-05T21:05:20.363Z,10.02
2023-01-05T21:10:33.823Z,5.93
2023-01-05T21:13:30.750Z,5.07
2023-01-05T21:13:35.269Z,0
2023-01-05T21:16:03.033Z,7.65
2023-01-05T21:18:30.857Z,6.90
2023-01-05T21:20:57.927Z,6.70
2023-01-05T21:23:25.380Z,6.45
2023-01-05T21:26:06.097Z,8.05
2023-01-05T21:28:38.684Z,10.15
2023-01-05T21:31:10.862Z,9.23
2023-01-05T21:33:38.364Z,9.02
2023-01-05T21:36:05.502Z,7.95
2023-01-05T21:38:59.902Z,8.00
2023-01-05T21:44:07.345Z,6.23
2023-01-05T21:49:21.259Z,6.90
2023-01-05T21:54:34.889Z,5.80
2023-01-05T21:57:01.806Z,6.25
2023-01-05T21:59:28.981Z,6.72
2023-01-05T22:01:56.167Z,5.60
2023-01-05T22:04:23.413Z,7.50
2023-01-05T22:06:50.833Z,6.53
2023-01-05T22:09:17.812Z,10.27
2023-01-05T22:11:44.666Z,13.88
2023-01-05T22:14:11.510Z,10.52
2023-01-05T22:16:38.397Z,8.32
2023-01-05T22:19:05.249Z,8.60
2023-01-05T22:21:32.073Z,7.00
2023-01-05T22:23:58.860Z,7.10
2023-01-05T22:26:25.640Z,6.10
2023-01-05T22:31:39.321Z,6.72
2023-01-05T22:36:52.755Z,5.30
2023-01-05T22:42:06.321Z,4.70
2023-01-05T22:44:33.096Z,5.97
2023-01-05T22:46:59.904Z,5.43
2023-01-05T22:49:26.671Z,5.90
2023-01-05T22:51:53.429Z,5.90
2023-01-05T22:54:20.292Z,6.03
2023-01-05T22:56:47.104Z,8.77
2023-01-05T22:59:13.931Z,8.50
2023-01-05T23:01:42.373Z,5.22
2023-01-05T23:04:09.526Z,6.30
2023-01-05T23:06:36.343Z,6.60
2023-01-05T23:09:05.095Z,5.18
2023-01-05T23:11:34.867Z,5.70
2023-01-05T23:14:03.725Z,5.80
2023-01-05T23:16:30.580Z,5.30
2023-01-05T23:18:57.572Z,9.63
2023-01-05T23:21:26.103Z,6.03
2023-01-05T23:23:55.806Z,4.75
2023-01-05T23:26:23.706Z,5.07
2023-01-05T23:28:50.567Z,6.93
2023-01-05T23:31:17.500Z,4.88
2023-01-05T23:33:44.290Z,5.13
2023-01-05T23:36:12.553Z,5.10
2023-01-05T23:38:39.591Z,6.03
2023-01-05T23:41:08.194Z,4.40
2023-01-05T23:46:24.389Z,5.13
2023-01-05T23:48:51.805Z,6.70
2023-01-05T23:51:18.906Z,4.82
2023-01-05T23:53:48.367Z,6.70
2023-01-05T23:56:24.119Z,5.10
2023-01-05T23:56:31.847Z,0
2023-01-05T23:58:59.789Z,4.80
